createdAt,value
2018-07-05T00:03:05.286Z,18.50
2018-07-05T00:05:44.925Z,18.50
2018-07-05T00:08:24.711Z,18.30
2018-07-05T00:11:04.172Z,18.20
2018-07-05T00:16:17.366Z,18.20
2018-07-05T00:21:31.043Z,18.10
2018-07-05T00:24:10.510Z,18.10
2018-07-05T00:26:50.219Z,18.10
2018-07-05T00:29:29.678Z,18.10
2018-07-05T00:34:42.594Z,18.00
2018-07-05T00:37:22.002Z,18.00
2018-07-05T00:40:01.775Z,17.80
2018-07-05T00:42:41.302Z,17.80
2018-07-05T00:45:20.798Z,17.80
2018-07-05T00:48:00.233Z,17.80
2018-07-05T00:50:39.659Z,17.80
2018-07-05T00:53:19.262Z,17.80
2018-07-05T00:55:58.950Z,17.80
2018-07-05T00:58:38.539Z,17.80
2018-07-05T01:01:18.015Z,17.80
2018-07-05T01:03:57.627Z,17.70
2018-07-05T01:06:37.162Z,17.70
2018-07-05T01:09:16.606Z,17.70
2018-07-05T01:11:56.274Z,17.70
2018-07-05T01:14:35.803Z,17.70
2018-07-05T01:17:15.237Z,17.80
2018-07-05T01:19:54.682Z,17.70
2018-07-05T01:25:07.815Z,17.70
2018-07-05T01:27:47.278Z,17.80
2018-07-05T01:30:26.842Z,17.80
2018-07-05T01:33:06.463Z,17.80
2018-07-05T01:35:46.046Z,17.80
2018-07-05T01:38:25.615Z,17.70
2018-07-05T01:43:38.662Z,17.90
2018-07-05T01:46:18.035Z,17.90
2018-07-05T01:48:57.510Z,17.90
2018-07-05T01:51:37.140Z,17.80
2018-07-05T01:54:16.754Z,17.80
2018-07-05T01:56:56.283Z,17.80
2018-07-05T01:59:35.662Z,17.80
2018-07-05T02:04:48.935Z,17.70
2018-07-05T02:07:28.556Z,17.70
2018-07-05T02:10:07.915Z,17.50
2018-07-05T02:12:47.245Z,17.50
2018-07-05T02:15:26.691Z,17.50
2018-07-05T02:18:06.266Z,17.50
2018-07-05T02:20:45.738Z,17.40
2018-07-05T02:23:25.133Z,17.30
2018-07-05T02:26:05.006Z,17.30
2018-07-05T02:28:44.563Z,17.30
2018-07-05T02:31:24.229Z,17.20
2018-07-05T02:34:10.882Z,17.20
2018-07-05T02:36:50.244Z,17.20
2018-07-05T02:39:35.212Z,17.10
2018-07-05T02:42:15.062Z,17.10
2018-07-05T02:44:55.134Z,17.00
2018-07-05T02:47:34.711Z,17.00
2018-07-05T02:50:14.547Z,17.10
2018-07-05T02:52:54.019Z,17.10
2018-07-05T02:55:33.447Z,17.30
2018-07-05T02:58:13.031Z,17.20
2018-07-05T03:00:52.513Z,17.10
2018-07-05T03:03:31.973Z,17.10
2018-07-05T03:06:11.396Z,17.10
2018-07-05T03:08:50.856Z,17.10
2018-07-05T03:11:30.289Z,17.10
2018-07-05T03:14:09.876Z,17.00
2018-07-05T03:16:49.379Z,17.00
2018-07-05T03:19:28.763Z,17.00
2018-07-05T03:22:08.154Z,17.00
2018-07-05T03:24:47.727Z,17.00
2018-07-05T03:27:27.287Z,17.00
2018-07-05T03:30:06.729Z,17.00
2018-07-05T03:32:46.282Z,16.90
2018-07-05T03:35:25.705Z,16.80
2018-07-05T03:38:05.243Z,16.80
2018-07-05T03:40:44.854Z,16.70
2018-07-05T03:43:24.430Z,16.70
2018-07-05T03:46:04.082Z,16.60
2018-07-05T03:48:43.603Z,16.60
2018-07-05T03:53:56.808Z,16.70
2018-07-05T03:56:36.270Z,16.70
2018-07-05T03:59:15.854Z,16.80
2018-07-05T04:04:28.918Z,16.90
2018-07-05T04:07:08.483Z,17.00
2018-07-05T04:09:48.110Z,17.10
2018-07-05T04:12:27.787Z,17.10
2018-07-05T04:15:07.251Z,17.10
2018-07-05T04:17:46.706Z,17.30
2018-07-05T04:20:26.471Z,17.30
2018-07-05T04:23:05.919Z,17.30
2018-07-05T04:25:45.554Z,17.30
2018-07-05T04:28:25.003Z,17.40
2018-07-05T04:33:25.362Z,17.60
2018-07-05T04:35:58.554Z,17.90
2018-07-05T04:38:38.039Z,18.00
2018-07-05T04:41:17.540Z,18.20
2018-07-05T04:43:57.183Z,18.30
2018-07-05T04:46:36.679Z,18.40
2018-07-05T04:49:09.812Z,18.40
2018-07-05T04:51:42.910Z,18.50
2018-07-05T04:54:15.985Z,18.60
2018-07-05T04:56:55.647Z,18.70
2018-07-05T04:59:35.404Z,18.80
2018-07-05T05:02:15.156Z,18.80
2018-07-05T05:04:54.717Z,18.80
2018-07-05T05:07:34.127Z,18.60
2018-07-05T05:10:13.738Z,18.40
2018-07-05T05:12:53.320Z,18.30
2018-07-05T05:15:32.696Z,18.30
2018-07-05T05:18:12.135Z,18.30
2018-07-05T05:20:51.648Z,18.30
2018-07-05T05:23:31.163Z,18.20
2018-07-05T05:28:44.038Z,18.40
2018-07-05T05:31:23.403Z,18.40
2018-07-05T05:34:02.838Z,18.40
2018-07-05T05:36:42.354Z,18.40
2018-07-05T05:39:21.876Z,18.50
2018-07-05T05:42:01.236Z,18.50
2018-07-05T05:44:40.738Z,18.60
2018-07-05T05:47:20.243Z,18.50
2018-07-05T05:49:59.875Z,18.50
2018-07-05T05:52:39.418Z,18.30
2018-07-05T05:55:18.962Z,18.30
2018-07-05T05:57:58.498Z,18.40
2018-07-05T06:00:38.035Z,18.50
2018-07-05T06:05:51.142Z,18.60
2018-07-05T06:08:24.517Z,18.70
2018-07-05T06:10:57.658Z,18.80
2018-07-05T06:13:37.239Z,19.00
2018-07-05T06:18:37.512Z,19.30
2018-07-05T06:21:10.541Z,19.50
2018-07-05T06:23:43.586Z,19.70
2018-07-05T06:28:43.934Z,19.80
2018-07-05T06:31:16.982Z,19.90
2018-07-05T06:33:56.651Z,20.00
2018-07-05T06:36:29.810Z,20.00
2018-07-05T06:39:03.962Z,20.00
2018-07-05T06:41:36.988Z,20.00
2018-07-05T06:44:10.134Z,20.10
2018-07-05T06:46:43.194Z,20.20
2018-07-05T06:51:43.534Z,20.50
2018-07-05T06:54:16.690Z,20.70
2018-07-05T06:56:49.717Z,21.00
2018-07-05T06:59:22.833Z,21.10
2018-07-05T07:01:56.055Z,21.20
2018-07-05T07:04:29.198Z,21.30
2018-07-05T07:07:02.377Z,21.30
2018-07-05T07:09:35.530Z,21.40
2018-07-05T07:12:08.593Z,21.50
2018-07-05T07:14:48.178Z,21.50
2018-07-05T07:17:21.234Z,21.50
2018-07-05T07:19:54.334Z,21.50
2018-07-05T07:22:27.535Z,21.50
2018-07-05T07:25:00.729Z,21.50
2018-07-05T07:27:40.071Z,21.70
2018-07-05T07:30:20.023Z,21.90
2018-07-05T07:32:59.679Z,22.10
2018-07-05T07:35:39.093Z,22.30
2018-07-05T07:38:12.146Z,22.30
2018-07-05T07:40:45.162Z,22.20
2018-07-05T07:43:12.059Z,22.20
2018-07-05T07:45:39.010Z,22.10
2018-07-05T07:48:06.049Z,22.00
2018-07-05T07:50:33.147Z,21.90
2018-07-05T07:53:00.045Z,21.80
2018-07-05T07:55:26.986Z,21.50
2018-07-05T07:57:53.881Z,21.30
2018-07-05T08:00:20.777Z,21.40
2018-07-05T08:02:47.665Z,21.50
2018-07-05T08:05:14.553Z,21.50
2018-07-05T08:07:41.465Z,21.30
2018-07-05T08:10:08.355Z,21.40
2018-07-05T08:12:35.246Z,21.20
2018-07-05T08:15:02.159Z,21.20
2018-07-05T08:17:29.246Z,21.20
2018-07-05T08:19:56.137Z,21.30
2018-07-05T08:22:23.232Z,21.40
2018-07-05T08:24:50.330Z,21.50
2018-07-05T08:27:17.238Z,21.50
2018-07-05T08:29:44.125Z,21.20
2018-07-05T08:32:11.027Z,21.10
2018-07-05T08:34:37.913Z,21.10
2018-07-05T08:37:04.818Z,20.90
2018-07-05T08:39:31.880Z,20.70
2018-07-05T08:41:58.991Z,20.70
2018-07-05T08:44:26.095Z,20.70
2018-07-05T08:46:52.985Z,20.70
2018-07-05T08:49:20.086Z,20.70
2018-07-05T08:51:47.194Z,20.70
2018-07-05T08:54:14.448Z,20.70
2018-07-05T08:56:41.333Z,20.60
2018-07-05T08:59:08.235Z,20.70
2018-07-05T09:01:35.336Z,20.70
2018-07-05T09:04:02.234Z,20.80
2018-07-05T09:06:29.122Z,20.70
2018-07-05T09:08:56.014Z,20.80
2018-07-05T09:11:23.118Z,20.90
2018-07-05T09:16:18.314Z,21.10
2018-07-05T09:18:45.414Z,21.10
2018-07-05T09:21:12.515Z,21.20
2018-07-05T09:23:39.640Z,21.10
2018-07-05T09:26:06.722Z,21.10
2018-07-05T09:28:33.814Z,21.20
2018-07-05T09:31:00.915Z,21.30
2018-07-05T09:33:28.010Z,21.20
2018-07-05T09:35:54.902Z,21.20
2018-07-05T09:38:21.800Z,21.30
2018-07-05T09:40:48.686Z,21.30
2018-07-05T09:43:15.577Z,21.30
2018-07-05T09:45:42.490Z,21.40
2018-07-05T09:48:09.382Z,21.40
2018-07-05T09:50:36.482Z,21.40
2018-07-05T09:53:03.588Z,21.40
2018-07-05T09:55:30.474Z,21.40
2018-07-05T09:57:57.415Z,21.40
2018-07-05T10:00:29.911Z,21.40
2018-07-05T10:02:56.797Z,21.50
2018-07-05T10:05:23.907Z,21.50
2018-07-05T10:07:50.799Z,21.60
2018-07-05T10:10:17.693Z,21.70
2018-07-05T10:12:44.786Z,21.80
2018-07-05T10:15:11.895Z,21.70
2018-07-05T10:17:38.990Z,21.80
2018-07-05T10:20:06.094Z,21.80
2018-07-05T10:22:33.194Z,21.80
2018-07-05T10:25:00.085Z,21.70
2018-07-05T10:27:27.233Z,21.80
2018-07-05T10:30:06.662Z,21.80
2018-07-05T10:32:39.734Z,21.90
2018-07-05T10:37:33.797Z,21.90
2018-07-05T10:40:06.889Z,21.90
2018-07-05T10:42:46.430Z,21.90
2018-07-05T10:45:25.929Z,21.90
2018-07-05T10:48:05.454Z,21.90
2018-07-05T10:53:18.498Z,21.50
2018-07-05T10:55:58.158Z,21.60
2018-07-05T10:58:37.696Z,21.40
2018-07-05T11:01:17.340Z,21.10
2018-07-05T11:03:50.598Z,20.90
2018-07-05T11:06:23.662Z,20.80
2018-07-05T11:09:04.698Z,20.40
2018-07-05T11:11:44.434Z,20.30
2018-07-05T11:14:24.010Z,20.10
2018-07-05T11:17:03.430Z,20.10
2018-07-05T11:22:16.175Z,20.00
2018-07-05T11:24:55.666Z,19.90
2018-07-05T11:27:35.187Z,19.80
2018-07-05T11:30:14.711Z,19.70
2018-07-05T11:32:54.239Z,19.60
2018-07-05T11:35:33.926Z,19.60
2018-07-05T11:38:13.494Z,19.70
2018-07-05T11:40:46.557Z,19.60
2018-07-05T11:43:26.302Z,19.50
2018-07-05T11:46:05.795Z,19.60
2018-07-05T11:48:45.506Z,19.40
2018-07-05T11:51:25.002Z,19.20
2018-07-05T11:54:04.530Z,19.10
2018-07-05T11:56:43.970Z,18.90
2018-07-05T11:59:23.519Z,18.70
2018-07-05T12:04:36.538Z,18.80
2018-07-05T12:07:16.050Z,18.90
2018-07-05T12:09:55.603Z,18.90
2018-07-05T12:12:35.107Z,18.80
2018-07-05T12:15:14.582Z,18.80
2018-07-05T12:17:54.194Z,18.80
2018-07-05T12:20:33.731Z,18.70
2018-07-05T12:23:13.542Z,18.80
2018-07-05T12:25:53.107Z,18.90
2018-07-05T12:28:32.559Z,19.10
2018-07-05T12:31:12.146Z,19.20
2018-07-05T12:33:51.527Z,19.30
2018-07-05T12:36:31.565Z,19.40
2018-07-05T12:39:04.750Z,19.40
2018-07-05T12:41:44.167Z,19.40
2018-07-05T12:44:23.506Z,19.40
2018-07-05T12:47:02.942Z,19.40
2018-07-05T12:49:42.414Z,19.20
2018-07-05T12:52:21.934Z,19.10
2018-07-05T12:55:01.367Z,19.00
2018-07-05T12:57:40.971Z,19.10
2018-07-05T13:00:20.428Z,18.90
2018-07-05T13:02:59.970Z,18.80
2018-07-05T13:05:39.438Z,18.70
2018-07-05T13:08:18.995Z,18.70
2018-07-05T13:10:58.738Z,18.70
2018-07-05T13:13:38.461Z,18.70
2018-07-05T13:16:18.663Z,18.60
2018-07-05T13:18:58.324Z,18.50
2018-07-05T13:21:38.151Z,18.50
2018-07-05T13:24:17.819Z,18.60
2018-07-05T13:26:57.426Z,18.50
2018-07-05T13:29:36.882Z,18.50
2018-07-05T13:32:16.394Z,18.50
2018-07-05T13:34:55.883Z,18.50
2018-07-05T13:37:35.602Z,18.30
2018-07-05T13:40:15.128Z,18.40
2018-07-05T13:42:54.724Z,18.40
2018-07-05T13:45:34.251Z,18.40
2018-07-05T14:34:17.819Z,18.20
2018-07-05T14:36:57.411Z,18.70
2018-07-05T14:39:37.042Z,18.70
2018-07-05T14:42:16.438Z,18.80
2018-07-05T14:44:56.086Z,18.80
2018-07-05T14:47:35.593Z,18.70
2018-07-05T14:52:48.751Z,18.50
2018-07-05T14:55:28.350Z,18.50
2018-07-05T14:58:08.214Z,18.40
2018-07-05T15:00:47.686Z,18.40
2018-07-05T15:03:27.263Z,18.30
2018-07-05T15:06:06.867Z,18.30
2018-07-05T15:08:46.543Z,18.30
2018-07-05T15:11:26.051Z,18.30
2018-07-05T15:14:05.610Z,18.20
2018-07-05T15:16:45.140Z,18.20
2018-07-05T15:21:58.107Z,18.30
2018-07-05T15:24:37.811Z,18.30
2018-07-05T15:27:17.206Z,18.30
2018-07-05T15:29:56.738Z,18.30
2018-07-05T15:32:36.359Z,18.30
2018-07-05T15:35:15.703Z,18.30
2018-07-05T15:37:55.186Z,18.40
2018-07-05T15:40:34.874Z,18.20
2018-07-05T15:43:14.403Z,18.10
2018-07-05T15:45:53.999Z,18.00
2018-07-05T15:48:33.498Z,18.00
2018-07-05T15:51:13.010Z,18.00
2018-07-05T15:53:52.515Z,17.90
2018-07-05T15:56:31.938Z,17.90
2018-07-05T15:59:11.492Z,18.00
2018-07-05T16:01:51.094Z,18.10
2018-07-05T16:07:04.258Z,18.30
2018-07-05T16:09:44.083Z,18.20
2018-07-05T16:12:23.530Z,18.30
2018-07-05T16:15:03.038Z,18.30
2018-07-05T16:17:42.464Z,18.20
2018-07-05T16:20:22.003Z,18.30
2018-07-05T16:23:01.454Z,18.30
2018-07-05T16:25:40.988Z,18.20
2018-07-05T16:28:20.666Z,18.20
2018-07-05T16:31:00.059Z,18.20
2018-07-05T16:33:39.565Z,18.10
2018-07-05T16:36:19.095Z,18.00
2018-07-05T16:38:58.550Z,18.00
2018-07-05T16:41:38.138Z,18.00
2018-07-05T16:44:17.550Z,17.90
2018-07-05T16:46:57.018Z,17.90
2018-07-05T16:49:36.610Z,17.90
2018-07-05T16:52:16.011Z,17.90
2018-07-05T16:54:55.492Z,17.90
2018-07-05T16:57:35.077Z,17.90
2018-07-05T17:00:14.614Z,17.90
2018-07-05T17:02:54.137Z,17.80
2018-07-05T17:05:33.819Z,17.80
2018-07-05T17:08:13.494Z,17.90
2018-07-05T17:10:53.194Z,17.90
2018-07-05T17:13:32.674Z,18.00
2018-07-05T17:16:12.302Z,18.00
2018-07-05T17:18:51.998Z,18.00
2018-07-05T17:21:31.674Z,17.90
2018-07-05T17:24:11.162Z,17.90
2018-07-05T17:26:50.822Z,17.90
2018-07-05T17:29:30.274Z,17.90
2018-07-05T17:32:09.803Z,17.90
2018-07-05T17:34:49.355Z,17.90
2018-07-05T17:37:28.946Z,17.90
2018-07-05T17:40:08.446Z,17.90
2018-07-05T17:42:47.898Z,17.90
2018-07-05T17:45:27.424Z,17.90
2018-07-05T17:48:07.114Z,17.90
2018-07-05T17:50:46.746Z,17.90
2018-07-05T17:53:26.237Z,18.00
2018-07-05T17:56:05.775Z,18.00
2018-07-05T17:58:45.338Z,18.00
2018-07-05T18:01:24.790Z,18.00
2018-07-05T18:04:04.290Z,18.00
2018-07-05T18:06:44.026Z,18.10
2018-07-05T18:09:23.618Z,18.00
2018-07-05T18:12:03.009Z,18.00
2018-07-05T18:14:42.421Z,18.00
2018-07-05T18:17:22.049Z,18.00
2018-07-05T18:20:01.702Z,18.00
2018-07-05T18:22:41.133Z,17.90
2018-07-05T18:30:28.058Z,17.90
2018-07-05T18:33:07.614Z,17.80
2018-07-05T18:35:47.147Z,17.80
2018-07-05T18:38:26.631Z,17.90
2018-07-05T18:41:06.109Z,17.90
2018-07-05T18:43:45.833Z,17.90
2018-07-05T18:46:25.332Z,17.90
2018-07-05T18:49:04.982Z,17.90
2018-07-05T18:51:44.512Z,17.90
2018-07-05T18:54:24.075Z,17.90
2018-07-05T18:57:03.510Z,17.90
2018-07-05T18:59:43.023Z,17.90
2018-07-05T19:02:22.496Z,17.90
2018-07-05T19:05:02.064Z,17.90
2018-07-05T19:07:41.766Z,18.00
2018-07-05T19:10:21.123Z,17.90
2018-07-05T19:13:00.590Z,17.90
2018-07-05T19:15:39.986Z,17.90
2018-07-05T19:23:26.646Z,17.80
2018-07-05T19:26:06.094Z,17.80
2018-07-05T19:28:45.506Z,17.70
2018-07-05T19:31:25.092Z,17.70
2018-07-05T19:34:04.672Z,17.70
2018-07-05T19:39:17.514Z,17.80
2018-07-05T19:41:57.118Z,17.70
2018-07-05T19:44:36.626Z,17.80
2018-07-05T19:52:23.475Z,17.70
2018-07-05T19:55:03.200Z,17.70
2018-07-05T19:57:42.686Z,17.60
2018-07-05T20:00:22.167Z,17.60
2018-07-05T20:05:35.290Z,17.60
2018-07-05T20:08:14.722Z,17.60
2018-07-05T20:13:32.060Z,17.60
2018-07-05T20:16:11.475Z,17.60
2018-07-05T20:18:51.043Z,17.60
2018-07-05T20:21:30.652Z,17.60
2018-07-05T20:24:10.211Z,17.60
2018-07-05T20:26:49.754Z,17.60
2018-07-05T20:32:02.930Z,17.60
2018-07-05T20:34:42.391Z,17.60
2018-07-05T20:39:55.543Z,17.50
2018-07-05T20:42:35.123Z,17.50
2018-07-05T20:45:14.559Z,17.50
2018-07-05T20:47:53.993Z,17.50
2018-07-05T20:50:33.478Z,17.50
2018-07-05T20:53:12.995Z,17.50
2018-07-05T20:55:52.735Z,17.50
2018-07-05T20:58:32.520Z,17.50
2018-07-05T21:01:12.103Z,17.50
2018-07-05T21:06:25.234Z,17.50
2018-07-05T21:09:05.387Z,17.40
2018-07-05T21:11:45.091Z,17.40
2018-07-05T21:14:24.759Z,17.30
2018-07-05T21:17:04.235Z,17.40
2018-07-05T21:19:43.758Z,17.40
2018-07-05T21:22:23.054Z,17.30
2018-07-05T21:25:02.823Z,17.40
2018-07-05T21:27:42.259Z,17.40
2018-07-05T21:30:21.693Z,17.40
2018-07-05T21:33:01.243Z,17.40
2018-07-05T21:35:40.802Z,17.40
2018-07-05T21:38:20.307Z,17.40
2018-07-05T21:40:59.859Z,17.40
2018-07-05T21:43:39.375Z,17.30
2018-07-05T21:46:18.886Z,17.30
2018-07-05T21:51:32.155Z,17.30
2018-07-05T21:54:11.607Z,17.40
2018-07-05T21:56:51.180Z,17.40
2018-07-05T21:59:30.619Z,17.40
2018-07-05T22:02:10.074Z,17.40
2018-07-05T22:04:49.551Z,17.40
2018-07-05T22:07:29.087Z,17.30
2018-07-05T22:10:08.800Z,17.40
2018-07-05T22:12:48.511Z,17.30
2018-07-05T22:15:28.066Z,17.40
2018-07-05T22:18:13.139Z,17.30
2018-07-05T22:20:58.082Z,17.30
2018-07-05T22:23:42.975Z,17.30
2018-07-05T22:26:28.107Z,17.30
2018-07-05T22:29:13.269Z,17.30
2018-07-05T22:31:56.125Z,17.30
2018-07-05T22:34:35.716Z,17.20
2018-07-05T22:37:15.151Z,17.20
2018-07-05T22:39:55.199Z,17.20
2018-07-05T22:42:35.050Z,17.20
2018-07-05T22:45:14.530Z,17.20
2018-07-05T22:47:54.050Z,17.20
2018-07-05T22:50:33.907Z,17.20
2018-07-05T22:53:13.303Z,17.20
2018-07-05T22:55:53.487Z,17.20
2018-07-05T22:58:33.401Z,17.30
2018-07-05T23:01:13.239Z,17.30
2018-07-05T23:03:52.827Z,17.20
2018-07-05T23:06:32.364Z,17.20
2018-07-05T23:09:11.961Z,17.20
2018-07-05T23:11:51.450Z,17.20
2018-07-05T23:14:30.915Z,17.20
2018-07-05T23:19:44.147Z,17.10
2018-07-05T23:22:23.987Z,17.10
2018-07-05T23:25:03.499Z,17.10
2018-07-05T23:27:43.043Z,17.10
2018-07-05T23:30:22.656Z,17.00
2018-07-05T23:33:02.266Z,17.00
2018-07-05T23:35:41.777Z,17.00
2018-07-05T23:43:28.727Z,17.00
2018-07-05T23:46:01.882Z,17.00
2018-07-05T23:48:34.861Z,17.10
2018-07-05T23:51:07.988Z,17.00
2018-07-05T23:58:48.188Z,16.90
